Time;durP1;ratioP1;P1;durP2;ratioP2;P2;SDS_P1;SDS_P2;PMS_P1;PMS_P2;Temp;Humidity;BMP_temperature;BMP_pressure;BME280_temperature;BME280_humidity;BME280_pressure;Samples;Min_cycle;Max_cycle;Signal;HPM_P1;HPM_P2
2024/01/07 00:01:20;;;;;;;4.23;3.30;;;8.40;99.90;;;;;;7388874;19;20210;-80
2024/01/07 00:03:46;;;;;;;3.87;2.73;;;8.30;99.90;;;;;;7388561;19;20138;-79
2024/01/07 00:06:11;;;;;;;3.53;2.47;;;8.20;99.90;;;;;;7395340;19;20174;-80
2024/01/07 00:08:37;;;;;;;3.33;2.60;;;8.20;99.90;;;;;;7393306;19;20159;-80
2024/01/07 00:11:03;;;;;;;3.60;2.60;;;8.20;99.90;;;;;;7394917;19;20146;-81
2024/01/07 00:13:29;;;;;;;3.00;2.30;;;8.30;99.90;;;;;;7394199;19;20154;-80
2024/01/07 00:15:55;;;;;;;3.43;2.47;;;8.20;99.90;;;;;;7396947;19;20547;-78
2024/01/07 00:18:22;;;;;;;2.33;2.07;;;8.20;99.90;;;;;;7395768;19;20258;-80
2024/01/07 00:20:47;;;;;;;3.13;1.90;;;8.30;99.90;;;;;;7396779;19;20149;-80
2024/01/07 00:23:13;;;;;;;2.97;2.43;;;8.30;99.90;;;;;;7394386;19;20155;-81
2024/01/07 00:25:39;;;;;;;3.70;2.43;;;8.20;99.90;;;;;;7394291;19;20602;-79
2024/01/07 00:28:05;;;;;;;4.07;2.43;;;8.30;99.90;;;;;;7393981;19;20149;-79
2024/01/07 00:30:31;;;;;;;2.83;2.47;;;8.20;99.90;;;;;;7393704;19;20184;-80
2024/01/07 00:32:56;;;;;;;3.30;2.30;;;8.20;99.90;;;;;;7394552;19;20150;-79
2024/01/07 00:35:22;;;;;;;3.77;2.40;;;8.20;99.90;;;;;;7395028;19;20473;-79
2024/01/07 00:37:48;;;;;;;3.87;2.43;;;8.20;99.90;;;;;;7396235;19;20155;-79
2024/01/07 00:40:14;;;;;;;3.53;2.53;;;8.20;99.90;;;;;;7394291;19;20189;-79
2024/01/07 00:42:39;;;;;;;4.63;2.63;;;8.30;99.90;;;;;;7392518;19;20673;-80
2024/01/07 00:45:05;;;;;;;2.53;2.13;;;8.20;99.90;;;;;;7395208;19;20162;-79
2024/01/07 00:47:31;;;;;;;3.43;2.33;;;8.20;99.90;;;;;;7393192;19;20151;-79
2024/01/07 00:49:57;;;;;;;3.43;2.20;;;8.20;99.90;;;;;;7393500;19;20474;-80
2024/01/07 00:52:23;;;;;;;3.10;2.10;;;8.20;99.90;;;;;;7393251;19;20122;-80
2024/01/07 00:54:49;;;;;;;3.07;2.30;;;8.20;99.90;;;;;;7394947;19;20672;-80
2024/01/07 00:57:17;;;;;;;4.13;3.03;;;8.20;99.90;;;;;;7392796;19;20146;-80
2024/01/07 00:59:43;;;;;;;2.10;1.97;;;8.30;99.90;;;;;;7392499;19;20150;-80
2024/01/07 01:02:09;;;;;;;2.73;2.40;;;8.30;99.90;;;;;;7393545;19;20801;-80
2024/01/07 01:04:38;;;;;;;4.10;3.27;;;8.40;99.90;;;;;;7393922;19;20162;-80
2024/01/07 01:07:04;;;;;;;4.77;3.17;;;8.30;99.90;;;;;;7389585;19;20196;-79
2024/01/07 01:09:30;;;;;;;3.13;2.60;;;8.40;99.90;;;;;;7393102;19;21368;-79
2024/01/07 01:11:56;;;;;;;4.20;2.93;;;8.30;99.90;;;;;;7389552;19;20167;-80
2024/01/07 01:14:21;;;;;;;3.07;2.30;;;8.20;99.90;;;;;;7395295;19;20138;-79
2024/01/07 01:16:47;;;;;;;3.87;2.03;;;8.20;99.90;;;;;;7389282;19;20221;-80
2024/01/07 01:19:13;;;;;;;3.70;2.47;;;8.20;99.90;;;;;;7391857;19;20198;-78
2024/01/07 01:21:38;;;;;;;2.50;2.30;;;8.10;99.90;;;;;;7391697;19;20146;-80
2024/01/07 01:24:04;;;;;;;2.77;2.30;;;8.20;99.90;;;;;;7392431;19;20215;-79
2024/01/07 01:26:30;;;;;;;2.97;2.33;;;8.10;99.90;;;;;;7391389;19;20798;-79
2024/01/07 01:28:56;;;;;;;3.33;2.47;;;8.10;99.90;;;;;;7393907;19;20135;-80
2024/01/07 01:31:21;;;;;;;2.17;1.73;;;8.10;99.90;;;;;;7389105;19;20146;-79
2024/01/07 01:33:47;;;;;;;3.63;2.60;;;8.20;99.90;;;;;;7391597;19;20163;-80
2024/01/07 01:36:13;;;;;;;4.40;2.93;;;8.20;99.90;;;;;;7390704;19;20157;-80
2024/01/07 01:38:38;;;;;;;3.90;2.03;;;8.20;99.90;;;;;;7391080;19;20130;-80
2024/01/07 01:41:04;;;;;;;2.70;2.07;;;8.20;99.90;;;;;;7390950;19;20214;-80
2024/01/07 01:43:30;;;;;;;4.33;2.73;;;8.20;99.90;;;;;;7392736;19;20199;-80
2024/01/07 01:45:56;;;;;;;1.83;1.50;;;8.10;99.90;;;;;;7392770;19;20146;-80
2024/01/07 01:48:23;;;;;;;2.40;2.03;;;8.20;99.90;;;;;;7391575;19;20157;-79
2024/01/07 01:50:50;;;;;;;4.27;2.70;;;8.20;99.90;;;;;;7385268;19;20158;-80
2024/01/07 01:53:16;;;;;;;3.47;2.13;;;8.30;99.90;;;;;;7389967;19;20252;-79
2024/01/07 01:55:43;;;;;;;4.07;2.60;;;8.20;99.90;;;;;;7390389;19;20130;-79
2024/01/07 01:58:09;;;;;;;5.00;3.07;;;8.20;99.90;;;;;;7391056;19;20631;-78
2024/01/07 02:00:35;;;;;;;3.43;2.67;;;8.20;99.90;;;;;;7391397;19;20150;-80
2024/01/07 02:03:01;;;;;;;4.47;2.90;;;8.10;99.90;;;;;;7391961;19;20210;-80
2024/01/07 02:05:27;;;;;;;4.10;2.70;;;8.10;99.90;;;;;;7389974;19;20189;-79
2024/01/07 02:07:56;;;;;;;5.87;2.97;;;8.20;99.90;;;;;;7391476;19;20890;-79
2024/01/07 02:10:22;;;;;;;4.80;2.83;;;8.10;99.90;;;;;;7389424;19;20139;-80
2024/01/07 02:12:48;;;;;;;4.00;2.77;;;8.20;99.90;;;;;;7391139;19;20139;-80
2024/01/07 02:15:14;;;;;;;2.90;2.53;;;8.30;99.90;;;;;;7392910;19;20424;-80
2024/01/07 02:17:40;;;;;;;6.83;3.40;;;8.30;99.90;;;;;;7391784;19;20155;-79
2024/01/07 02:20:06;;;;;;;3.63;3.07;;;8.30;99.90;;;;;;7390894;19;20135;-80
2024/01/07 02:22:32;;;;;;;4.47;2.97;;;8.20;99.90;;;;;;7392031;19;20158;-79
2024/01/07 02:24:58;;;;;;;3.33;2.83;;;8.20;99.90;;;;;;7392782;19;20209;-80
2024/01/07 02:27:24;;;;;;;3.67;2.47;;;8.10;99.90;;;;;;7388168;19;20841;-80
2024/01/07 02:29:50;;;;;;;3.80;2.83;;;8.10;99.90;;;;;;7389744;19;20146;-78
2024/01/07 02:32:15;;;;;;;3.40;2.67;;;8.10;99.90;;;;;;7391990;19;20146;-80
2024/01/07 02:34:41;;;;;;;4.00;3.13;;;8.10;99.90;;;;;;7387891;19;20556;-78
2024/01/07 02:37:07;;;;;;;2.70;2.17;;;8.10;99.90;;;;;;7392470;19;20737;-80
2024/01/07 02:39:32;;;;;;;4.03;2.73;;;8.20;99.90;;;;;;7388852;19;20147;-80
2024/01/07 02:41:58;;;;;;;3.17;2.47;;;8.20;99.90;;;;;;7391003;19;20138;-79
2024/01/07 02:44:24;;;;;;;3.53;3.00;;;8.10;99.90;;;;;;7391418;19;20135;-78
2024/01/07 02:46:50;;;;;;;4.20;3.07;;;8.10;99.90;;;;;;7391018;19;20620;-79
2024/01/07 02:49:24;;;;;;;3.27;2.67;;;8.10;99.90;;;;;;7423560;19;20479;-80
2024/01/07 02:51:49;;;;;;;3.23;2.60;;;8.10;99.90;;;;;;7425991;19;20149;-79
2024/01/07 02:54:16;;;;;;;3.87;2.80;;;8.00;99.90;;;;;;7424756;19;20934;-79
2024/01/07 02:56:41;;;;;;;4.20;2.70;;;8.10;99.90;;;;;;7424311;19;20686;-79
2024/01/07 02:59:07;;;;;;;7.53;4.23;;;8.10;99.90;;;;;;7423891;19;20155;-79
2024/01/07 03:01:39;;;;;;;4.10;3.40;;;8.20;99.90;;;;;;7425637;19;20137;-80
2024/01/07 03:04:06;;;;;;;3.50;2.63;;;8.10;99.90;;;;;;7422842;19;20287;-80
2024/01/07 03:06:32;;;;;;;4.37;3.10;;;8.00;99.90;;;;;;7425706;19;20146;-79
2024/01/07 03:08:58;;;;;;;4.20;3.33;;;8.10;99.90;;;;;;7421057;19;20140;-80
2024/01/07 03:11:23;;;;;;;2.57;2.37;;;8.10;99.90;;;;;;7425438;19;20193;-80
2024/01/07 03:13:49;;;;;;;3.47;2.70;;;8.10;99.90;;;;;;7424922;19;20540;-80
2024/01/07 03:16:26;;;;;;;3.87;2.97;;;8.20;99.90;;;;;;7424684;19;20271;-79
2024/01/07 03:18:52;;;;;;;5.07;2.70;;;8.20;99.90;;;;;;7424292;19;20148;-78
2024/01/07 03:21:22;;;;;;;4.63;2.50;;;8.20;99.90;;;;;;7422566;19;20137;-80
2024/01/07 03:23:49;;;;;;;2.97;2.63;;;8.20;99.90;;;;;;7424413;19;20170;-80
2024/01/07 03:26:17;;;;;;;4.20;2.60;;;8.20;99.90;;;;;;7426026;19;20505;-79
2024/01/07 03:28:43;;;;;;;3.60;2.70;;;8.10;99.90;;;;;;7420896;19;20146;-80
2024/01/07 03:31:13;;;;;;;3.03;2.73;;;8.10;99.90;;;;;;7424125;19;20491;-80
2024/01/07 03:33:39;;;;;;;3.27;2.67;;;8.10;99.90;;;;;;7424290;19;20152;-80
2024/01/07 03:36:09;;;;;;;3.50;2.70;;;8.20;99.90;;;;;;7425280;19;20170;-80
2024/01/07 03:38:36;;;;;;;4.43;3.67;;;8.20;99.90;;;;;;7424203;19;20134;-80
2024/01/07 03:41:02;;;;;;;4.23;3.03;;;8.10;99.90;;;;;;7422687;19;20146;-80
2024/01/07 03:43:28;;;;;;;2.80;2.33;;;8.20;99.90;;;;;;7424639;19;20268;-80
2024/01/07 03:45:54;;;;;;;4.07;3.13;;;8.20;99.90;;;;;;7423173;19;20635;-78
2024/01/07 03:48:20;;;;;;;3.83;2.90;;;8.10;99.90;;;;;;7422313;19;20510;-80
2024/01/07 03:50:46;;;;;;;3.77;3.20;;;8.10;99.90;;;;;;7421627;19;20158;-80
2024/01/07 03:53:13;;;;;;;3.13;2.83;;;8.10;99.90;;;;;;7420378;19;20630;-80
2024/01/07 03:55:39;;;;;;;4.40;3.20;;;8.10;99.90;;;;;;7422806;19;20206;-80
2024/01/07 03:58:05;;;;;;;4.37;3.50;;;8.10;99.90;;;;;;7424071;19;20130;-80
2024/01/07 04:00:31;;;;;;;3.17;2.50;;;8.00;99.90;;;;;;7396322;19;20135;-80
2024/01/07 04:02:57;;;;;;;2.50;2.30;;;8.00;99.90;;;;;;7394780;19;20127;-79
2024/01/07 04:05:23;;;;;;;2.43;2.07;;;8.00;99.90;;;;;;7390361;19;20171;-80
2024/01/07 04:07:48;;;;;;;4.20;2.73;;;8.10;99.90;;;;;;7393662;19;20138;-80
2024/01/07 04:10:16;;;;;;;4.53;2.67;;;8.10;99.90;;;;;;7392977;19;20600;-80
2024/01/07 04:12:42;;;;;;;3.97;2.97;;;8.10;99.90;;;;;;7394952;19;20141;-80
2024/01/07 04:15:08;;;;;;;5.63;2.80;;;8.00;99.90;;;;;;7394057;19;20168;-80
2024/01/07 04:17:34;;;;;;;3.27;2.57;;;8.10;99.90;;;;;;7394827;19;20145;-80
2024/01/07 04:20:00;;;;;;;4.17;2.67;;;7.90;99.90;;;;;;7392947;19;20154;-81
2024/01/07 04:22:26;;;;;;;3.73;2.60;;;8.00;99.90;;;;;;7394059;19;20154;-81
2024/01/07 04:24:51;;;;;;;3.73;2.37;;;8.10;99.90;;;;;;7394475;19;20155;-80
2024/01/07 04:27:17;;;;;;;3.17;2.50;;;8.10;99.90;;;;;;7394012;19;20155;-80
2024/01/07 04:29:43;;;;;;;3.17;2.43;;;8.10;99.90;;;;;;7392967;19;20544;-79
2024/01/07 04:32:08;;;;;;;2.97;2.50;;;8.10;99.90;;;;;;7395467;19;20135;-80
2024/01/07 04:34:34;;;;;;;4.83;2.53;;;8.10;99.90;;;;;;7394867;19;20134;-80
2024/01/07 04:37:00;;;;;;;4.77;3.30;;;8.10;99.90;;;;;;7394998;19;20146;-81
2024/01/07 04:39:26;;;;;;;5.13;3.27;;;8.00;99.90;;;;;;7392710;19;20502;-81
2024/01/07 04:41:52;;;;;;;3.43;2.73;;;8.00;99.90;;;;;;7394142;19;20178;-81
2024/01/07 04:44:17;;;;;;;2.50;2.17;;;8.00;99.90;;;;;;7392990;19;20147;-80
2024/01/07 04:46:43;;;;;;;3.90;2.70;;;8.00;99.90;;;;;;7393694;19;20146;-79
2024/01/07 04:49:09;;;;;;;3.27;2.37;;;8.10;99.90;;;;;;7390649;19;20154;-80
2024/01/07 04:51:36;;;;;;;4.57;3.03;;;8.00;99.90;;;;;;7393963;19;20499;-80
2024/01/07 04:54:02;;;;;;;4.80;2.80;;;8.00;99.90;;;;;;7392143;19;20162;-80
2024/01/07 04:56:28;;;;;;;3.17;2.63;;;8.00;99.90;;;;;;7393240;19;20154;-78
2024/01/07 04:58:53;;;;;;;5.67;2.60;;;7.90;99.90;;;;;;7393718;19;20562;-80
2024/01/07 05:01:19;;;;;;;2.83;2.53;;;7.80;99.90;;;;;;7393412;19;20158;-80
2024/01/07 05:03:45;;;;;;;2.30;2.10;;;7.80;99.90;;;;;;7390580;19;20296;-80
2024/01/07 05:06:11;;;;;;;2.60;1.67;;;7.80;99.90;;;;;;7394126;19;20151;-81
2024/01/07 05:08:37;;;;;;;4.20;2.73;;;7.80;99.90;;;;;;7389807;19;20167;-80
2024/01/07 05:11:04;;;;;;;2.27;1.80;;;7.80;99.90;;;;;;7390749;19;20450;-80
2024/01/07 05:13:30;;;;;;;4.23;3.03;;;7.80;99.90;;;;;;7392901;19;20149;-80
2024/01/07 05:15:57;;;;;;;3.40;2.70;;;7.80;99.90;;;;;;7393321;19;20452;-80
2024/01/07 05:18:24;;;;;;;3.03;2.47;;;7.80;99.90;;;;;;7392488;19;20142;-79
2024/01/07 05:20:50;;;;;;;2.73;1.77;;;7.70;99.90;;;;;;7393277;19;20182;-79
2024/01/07 05:23:16;;;;;;;3.40;2.57;;;7.70;99.90;;;;;;7393646;19;20182;-79
2024/01/07 05:25:45;;;;;;;3.00;2.30;;;7.70;99.90;;;;;;7390518;19;20147;-81
2024/01/07 05:28:14;;;;;;;3.63;2.10;;;7.70;99.90;;;;;;7393145;19;20490;-79
2024/01/07 05:30:44;;;;;;;2.10;1.97;;;7.60;99.90;;;;;;7391941;19;20142;-81
2024/01/07 05:33:10;;;;;;;3.20;2.33;;;7.60;99.90;;;;;;7392594;19;20139;-77
2024/01/07 05:35:35;;;;;;;3.27;2.23;;;7.70;99.90;;;;;;7390864;19;20159;-79
2024/01/07 05:38:01;;;;;;;3.60;1.80;;;7.80;99.90;;;;;;7394302;19;20484;-81
2024/01/07 05:40:27;;;;;;;2.40;1.57;;;7.80;99.90;;;;;;7389308;19;20150;-82
2024/01/07 05:42:53;;;;;;;5.30;2.30;;;7.70;99.90;;;;;;7392155;19;20155;-82
2024/01/07 05:45:20;;;;;;;1.97;1.40;;;7.80;99.90;;;;;;7392879;19;20146;-83
2024/01/07 05:47:45;;;;;;;2.30;1.80;;;7.80;99.90;;;;;;7391265;19;20166;-83
2024/01/07 05:50:15;;;;;;;2.17;1.97;;;7.80;99.90;;;;;;7392782;19;20154;-83
2024/01/07 05:52:41;;;;;;;3.20;2.37;;;7.80;99.90;;;;;;7395105;19;20523;-81
2024/01/07 05:55:07;;;;;;;2.00;1.80;;;7.80;99.90;;;;;;7393355;19;20139;-83
2024/01/07 05:57:33;;;;;;;2.40;1.53;;;7.80;99.90;;;;;;7392931;19;22098;-82
2024/01/07 05:59:58;;;;;;;2.13;1.83;;;7.80;99.90;;;;;;7392534;19;20139;-81
2024/01/07 06:02:24;;;;;;;1.70;1.60;;;7.70;99.90;;;;;;7391098;19;20152;-83
2024/01/07 06:04:50;;;;;;;2.17;1.80;;;7.80;99.90;;;;;;7389924;19;20178;-83
2024/01/07 06:07:16;;;;;;;3.97;2.73;;;7.80;99.90;;;;;;7389275;19;21111;-83
2024/01/07 06:09:42;;;;;;;2.23;1.90;;;7.80;99.90;;;;;;7391633;19;20162;-83
2024/01/07 06:12:07;;;;;;;1.83;1.53;;;7.70;99.90;;;;;;7391330;19;20139;-83
2024/01/07 06:14:33;;;;;;;1.67;1.57;;;7.70;99.90;;;;;;7391505;19;20141;-83
2024/01/07 06:16:59;;;;;;;2.10;1.73;;;7.70;99.90;;;;;;7390390;19;20147;-82
2024/01/07 06:19:24;;;;;;;1.87;1.53;;;7.70;99.90;;;;;;7390242;19;20143;-82
2024/01/07 06:21:50;;;;;;;2.93;2.23;;;7.80;99.90;;;;;;7390607;19;20551;-83
2024/01/07 06:24:16;;;;;;;3.10;1.80;;;7.80;99.90;;;;;;7391277;19;20231;-84
2024/01/07 06:26:42;;;;;;;3.53;2.47;;;7.70;99.90;;;;;;7391532;19;20222;-84
2024/01/07 06:29:09;;;;;;;4.50;2.17;;;7.80;99.90;;;;;;7389911;19;20157;-85
2024/01/07 06:31:35;;;;;;;1.63;1.43;;;7.80;99.90;;;;;;7392589;19;20262;-84
2024/01/07 06:34:01;;;;;;;2.83;2.00;;;7.80;99.90;;;;;;7392313;19;20518;-82
2024/01/07 06:36:26;;;;;;;2.17;1.97;;;7.80;99.90;;;;;;7392815;19;20149;-85
2024/01/07 06:38:52;;;;;;;2.73;1.93;;;7.80;99.90;;;;;;7391118;19;20533;-82
2024/01/07 06:41:18;;;;;;;2.17;1.80;;;7.80;99.90;;;;;;7391653;19;20158;-84
2024/01/07 06:43:44;;;;;;;3.07;1.77;;;7.90;99.90;;;;;;7392683;19;20130;-83
2024/01/07 06:46:11;;;;;;;2.30;2.10;;;7.90;99.90;;;;;;7395379;19;20180;-84
2024/01/07 06:48:37;;;;;;;2.30;1.97;;;7.90;99.90;;;;;;7391472;19;20178;-83
2024/01/07 06:51:03;;;;;;;3.00;2.20;;;7.80;99.90;;;;;;7392121;19;20172;-80
2024/01/07 06:53:28;;;;;;;1.63;1.50;;;7.80;99.90;;;;;;7392039;19;20600;-85
2024/01/07 06:55:54;;;;;;;2.00;1.83;;;7.70;99.90;;;;;;7391624;19;20143;-85
2024/01/07 06:58:20;;;;;;;1.77;1.30;;;7.60;99.90;;;;;;7393126;19;20144;-83
2024/01/07 07:00:45;;;;;;;2.47;1.63;;;7.70;99.90;;;;;;7392232;19;20458;-83
2024/01/07 07:03:11;;;;;;;2.80;1.53;;;7.60;99.90;;;;;;7394544;19;20139;-83
2024/01/07 07:05:37;;;;;;;1.73;1.57;;;7.80;99.90;;;;;;7393882;19;20209;-84
2024/01/07 07:08:03;;;;;;;2.87;2.30;;;7.70;99.90;;;;;;7391401;19;20139;-83
2024/01/07 07:10:29;;;;;;;2.10;1.90;;;7.70;99.90;;;;;;7389813;19;20619;-83
2024/01/07 07:12:55;;;;;;;2.53;2.30;;;7.70;99.90;;;;;;7390329;19;20764;-83
2024/01/07 07:15:20;;;;;;;1.70;1.60;;;7.70;99.90;;;;;;7393138;19;20162;-83
2024/01/07 07:17:46;;;;;;;2.97;2.33;;;7.60;99.90;;;;;;7390957;19;20496;-83
2024/01/07 07:20:12;;;;;;;1.57;1.47;;;7.60;99.90;;;;;;7389942;19;20143;-82
2024/01/07 07:22:38;;;;;;;2.03;1.77;;;7.60;99.90;;;;;;7392014;19;20135;-87
2024/01/07 07:25:05;;;;;;;1.10;1.00;;;7.60;99.90;;;;;;7391100;19;20154;-84
2024/01/07 07:27:31;;;;;;;1.60;1.50;;;7.50;99.90;;;;;;7388887;19;20145;-81
2024/01/07 07:29:57;;;;;;;3.17;1.57;;;7.50;99.90;;;;;;7388989;19;20512;-80
2024/01/07 07:32:22;;;;;;;1.77;1.53;;;7.50;99.90;;;;;;7391965;19;20135;-81
2024/01/07 07:34:48;;;;;;;2.10;1.90;;;7.50;99.90;;;;;;7391613;19;20304;-79
2024/01/07 07:37:14;;;;;;;2.40;1.50;;;7.40;99.90;;;;;;7394446;19;20130;-77
2024/01/07 07:39:39;;;;;;;1.83;1.70;;;7.40;99.90;;;;;;7394497;19;20157;-78
2024/01/07 07:42:05;;;;;;;1.70;1.10;;;7.30;99.90;;;;;;7394331;19;20258;-77
2024/01/07 07:44:31;;;;;;;1.90;1.70;;;7.20;99.90;;;;;;7395604;19;20554;-79
2024/01/07 07:46:57;;;;;;;1.93;1.33;;;7.30;99.90;;;;;;7393267;19;20138;-79
2024/01/07 07:49:22;;;;;;;2.20;1.67;;;7.40;99.90;;;;;;7390101;19;20131;-78
2024/01/07 07:51:48;;;;;;;1.00;0.93;;;7.40;99.90;;;;;;7393817;19;20151;-79
2024/01/07 07:54:14;;;;;;;1.50;1.20;;;7.30;99.90;;;;;;7396300;19;20134;-79
2024/01/07 07:56:39;;;;;;;1.60;0.87;;;7.30;99.90;;;;;;7395154;19;20199;-80
2024/01/07 07:59:05;;;;;;;1.53;1.20;;;7.30;99.90;;;;;;7393577;19;20150;-80
2024/01/07 08:01:31;;;;;;;2.37;1.70;;;7.30;99.90;;;;;;7394659;19;20146;-80
2024/01/07 08:03:57;;;;;;;2.57;1.40;;;7.30;99.90;;;;;;7393324;19;20595;-82
2024/01/07 08:06:22;;;;;;;3.67;1.17;;;7.30;99.90;;;;;;7394462;19;20150;-81
2024/01/07 08:08:48;;;;;;;2.03;1.43;;;7.40;99.90;;;;;;7387464;19;20291;-79
2024/01/07 08:11:14;;;;;;;4.63;1.60;;;7.30;99.90;;;;;;7394008;19;20165;-78
2024/01/07 08:13:40;;;;;;;2.07;1.73;;;7.20;99.90;;;;;;7394151;19;20150;-79
2024/01/07 08:16:06;;;;;;;1.33;0.90;;;7.20;99.90;;;;;;7393338;19;20230;-80
2024/01/07 08:18:32;;;;;;;1.47;1.30;;;7.20;99.90;;;;;;7394116;19;20274;-81
2024/01/07 08:20:58;;;;;;;1.80;1.27;;;7.20;99.90;;;;;;7392887;19;20466;-80
2024/01/07 08:23:27;;;;;;;1.50;1.40;;;7.30;99.90;;;;;;7394960;19;20506;-82
2024/01/07 08:25:53;;;;;;;1.67;1.10;;;7.20;99.90;;;;;;7393608;19;20157;-82
2024/01/07 08:28:19;;;;;;;2.03;1.17;;;7.30;99.90;;;;;;7393172;19;20127;-81
2024/01/07 08:30:46;;;;;;;2.37;1.40;;;7.10;99.90;;;;;;7391205;19;20206;-80
2024/01/07 08:33:11;;;;;;;1.13;1.07;;;7.20;99.90;;;;;;7395419;19;20147;-81
2024/01/07 08:35:37;;;;;;;0.80;0.80;;;7.20;99.90;;;;;;7393970;19;20177;-81
2024/01/07 08:38:03;;;;;;;1.00;1.00;;;7.10;99.90;;;;;;7394233;19;20206;-81
2024/01/07 08:40:29;;;;;;;1.40;1.30;;;7.10;99.90;;;;;;7392097;19;20210;-82
2024/01/07 08:42:55;;;;;;;1.40;1.10;;;7.20;99.90;;;;;;7391766;19;20687;-83
2024/01/07 08:45:21;;;;;;;1.50;1.07;;;7.20;99.90;;;;;;7393391;19;20221;-82
2024/01/07 08:47:48;;;;;;;2.00;1.50;;;7.20;99.90;;;;;;7392391;19;20166;-79
2024/01/07 08:50:14;;;;;;;1.40;1.30;;;7.30;99.90;;;;;;7391331;19;20156;-80
2024/01/07 08:52:39;;;;;;;2.33;1.23;;;7.20;99.90;;;;;;7397541;19;20134;-80
2024/01/07 08:55:07;;;;;;;2.13;1.30;;;7.10;99.90;;;;;;7394347;19;20159;-78
2024/01/07 08:57:33;;;;;;;1.97;1.50;;;7.10;99.90;;;;;;7390562;19;20151;-81
2024/01/07 08:59:58;;;;;;;1.70;1.07;;;7.10;99.90;;;;;;7391982;19;20493;-80
2024/01/07 09:02:25;;;;;;;1.40;1.30;;;7.10;99.90;;;;;;7392148;19;20511;-80
2024/01/07 09:04:52;;;;;;;1.47;1.37;;;7.20;99.90;;;;;;7391510;19;20167;-79
2024/01/07 09:07:19;;;;;;;1.53;1.17;;;7.20;99.90;;;;;;7389617;19;20247;-80
2024/01/07 09:09:48;;;;;;;1.23;1.10;;;7.10;99.90;;;;;;7389616;19;20155;-79
2024/01/07 09:12:13;;;;;;;1.70;1.17;;;7.10;99.90;;;;;;7390094;19;20247;-79
2024/01/07 09:14:39;;;;;;;1.70;1.10;;;7.10;99.90;;;;;;7391792;19;20146;-79
2024/01/07 09:17:05;;;;;;;1.10;1.00;;;7.10;99.90;;;;;;7387309;19;20181;-79
2024/01/07 09:19:31;;;;;;;1.10;1.00;;;7.10;99.90;;;;;;7389148;19;20154;-79
2024/01/07 09:21:57;;;;;;;1.13;1.03;;;7.20;99.90;;;;;;7393234;19;20156;-79
2024/01/07 09:24:23;;;;;;;1.27;1.00;;;7.20;99.90;;;;;;7392545;19;20142;-79
2024/01/07 09:26:49;;;;;;;0.93;0.60;;;7.20;99.90;;;;;;7388987;19;20143;-79
2024/01/07 09:29:17;;;;;;;2.00;1.13;;;7.20;99.90;;;;;;7385037;19;20218;-80
2024/01/07 09:31:43;;;;;;;0.87;0.67;;;7.20;99.90;;;;;;7391026;19;20149;-81
2024/01/07 09:34:09;;;;;;;1.43;0.80;;;7.30;99.90;;;;;;7391013;19;20954;-84
2024/01/07 09:36:36;;;;;;;1.30;1.00;;;7.30;99.90;;;;;;7389030;19;20138;-79
2024/01/07 09:39:04;;;;;;;2.00;0.90;;;7.30;99.90;;;;;;7389766;19;20135;-78
2024/01/07 09:41:30;;;;;;;1.03;0.93;;;7.20;99.90;;;;;;7391669;19;20593;-80
2024/01/07 09:43:58;;;;;;;1.23;1.00;;;7.10;99.90;;;;;;7389711;19;20318;-78
2024/01/07 09:46:25;;;;;;;1.40;0.77;;;7.00;99.90;;;;;;7390380;19;20206;-81
2024/01/07 09:48:51;;;;;;;0.90;0.83;;;7.00;99.90;;;;;;7386933;19;20155;-81
2024/01/07 09:51:21;;;;;;;1.40;0.93;;;7.00;99.90;;;;;;7389105;19;20139;-80
2024/01/07 09:53:53;;;;;;;0.70;0.50;;;7.00;99.90;;;;;;7390612;19;20146;-81
2024/01/07 09:56:28;;;;;;;1.53;1.17;;;7.00;99.90;;;;;;7391170;19;20161;-79
2024/01/07 09:58:54;;;;;;;1.43;0.83;;;7.10;99.90;;;;;;7388759;19;20166;-82
2024/01/07 10:01:20;;;;;;;1.20;1.10;;;7.10;99.90;;;;;;7390344;19;20135;-81
2024/01/07 10:03:46;;;;;;;1.13;1.07;;;7.10;99.90;;;;;;7389318;19;20142;-80
2024/01/07 10:06:12;;;;;;;1.27;1.17;;;7.10;99.90;;;;;;7390319;19;20134;-80
2024/01/07 10:08:38;;;;;;;0.93;0.80;;;7.10;99.90;;;;;;7388431;19;20138;-79
2024/01/07 10:11:04;;;;;;;3.80;1.20;;;7.00;99.90;;;;;;7391705;19;20592;-79
2024/01/07 10:13:31;;;;;;;1.10;1.00;;;7.10;99.90;;;;;;7391201;19;20137;-81
2024/01/07 10:15:57;;;;;;;1.10;1.00;;;7.10;99.90;;;;;;7390979;19;20804;-81
2024/01/07 10:18:23;;;;;;;2.00;1.33;;;7.00;99.90;;;;;;7390223;19;20138;-87
2024/01/07 10:20:49;;;;;;;1.27;1.07;;;6.90;99.90;;;;;;7389256;19;20154;-79
2024/01/07 10:23:22;;;;;;;1.20;0.60;;;6.80;99.90;;;;;;7389063;19;20138;-79
2024/01/07 10:25:48;;;;;;;1.27;0.90;;;6.90;99.90;;;;;;7389008;19;20142;-78
2024/01/07 10:28:16;;;;;;;1.07;1.00;;;6.90;99.90;;;;;;7388680;19;20218;-80
2024/01/07 10:30:49;;;;;;;0.70;0.70;;;6.90;99.90;;;;;;7389535;19;20135;-82
2024/01/07 10:33:18;;;;;;;1.03;0.80;;;6.80;99.90;;;;;;7391070;19;20608;-83
2024/01/07 10:35:51;;;;;;;2.20;1.00;;;6.80;99.90;;;;;;7388510;19;20174;-85
2024/01/07 10:38:17;;;;;;;1.07;0.97;;;6.70;99.90;;;;;;7388338;19;20584;-80
2024/01/07 10:40:45;;;;;;;1.30;1.20;;;6.80;99.90;;;;;;7384850;19;20157;-77
2024/01/07 10:43:14;;;;;;;1.83;1.23;;;6.70;99.90;;;;;;7388780;19;20154;-79
2024/01/07 10:45:39;;;;;;;2.23;1.50;;;6.80;99.90;;;;;;7388203;19;20279;-81
2024/01/07 10:48:08;;;;;;;1.57;1.20;;;6.80;99.90;;;;;;7387358;19;20193;-81
2024/01/07 10:50:34;;;;;;;1.93;1.27;;;6.70;99.90;;;;;;7388953;19;20143;-79
2024/01/07 10:53:05;;;;;;;1.17;1.03;;;6.70;99.90;;;;;;7386967;19;20252;-79
2024/01/07 10:55:36;;;;;;;1.63;1.30;;;6.60;99.90;;;;;;7388084;19;20610;-79
2024/01/07 10:58:03;;;;;;;0.93;0.93;;;6.60;99.90;;;;;;7386942;19;20138;-80
2024/01/07 11:00:30;;;;;;;2.67;1.53;;;6.70;99.90;;;;;;7385776;19;20233;-80
2024/01/07 11:03:27;;;;;;;2.33;1.53;;;6.80;99.90;;;;;;7385588;19;20198;-81
2024/01/07 11:06:00;;;;;;;1.17;0.90;;;6.70;99.90;;;;;;7387183;19;20226;-80
2024/01/07 11:08:36;;;;;;;1.83;1.37;;;6.60;99.90;;;;;;7387429;19;20158;-82
2024/01/07 11:11:17;;;;;;;1.43;1.33;;;6.50;99.90;;;;;;7397415;19;20238;-80
2024/01/07 11:13:44;;;;;;;1.77;1.20;;;6.50;99.90;;;;;;7396189;19;21208;-80
2024/01/07 11:16:14;;;;;;;1.20;1.10;;;6.50;99.90;;;;;;7397967;19;20155;-79
2024/01/07 11:18:49;;;;;;;1.17;1.07;;;6.60;99.90;;;;;;7394654;19;20134;-79
2024/01/07 11:21:24;;;;;;;1.83;1.43;;;6.60;99.90;;;;;;7396345;19;20568;-78
2024/01/07 11:23:52;;;;;;;1.70;0.97;;;6.60;99.90;;;;;;7394753;19;20149;-81
2024/01/07 11:26:20;;;;;;;1.83;1.60;;;6.70;99.90;;;;;;7392396;19;20131;-78
2024/01/07 11:28:46;;;;;;;1.67;1.10;;;6.70;99.90;;;;;;7389987;19;20612;-80
2024/01/07 11:31:13;;;;;;;1.03;0.90;;;6.70;99.90;;;;;;7394625;19;20198;-81
2024/01/07 11:33:39;;;;;;;1.40;1.10;;;6.60;99.90;;;;;;7395497;19;20142;-80
2024/01/07 11:36:05;;;;;;;1.07;0.90;;;6.70;99.90;;;;;;7392508;19;20167;-80
2024/01/07 11:38:31;;;;;;;0.87;0.63;;;6.80;99.90;;;;;;7393418;19;20138;-80
2024/01/07 11:40:58;;;;;;;1.13;1.00;;;6.70;99.90;;;;;;7392126;19;20146;-80
2024/01/07 11:43:25;;;;;;;1.37;1.27;;;6.70;99.90;;;;;;7394458;19;20146;-79
2024/01/07 11:45:51;;;;;;;1.27;1.17;;;6.70;99.90;;;;;;7391384;19;20131;-79
2024/01/07 11:48:18;;;;;;;1.67;1.07;;;6.70;99.90;;;;;;7391842;19;20174;-80
2024/01/07 11:50:44;;;;;;;2.03;1.00;;;6.70;99.90;;;;;;7392334;19;20157;-79
2024/01/07 11:53:12;;;;;;;2.00;1.13;;;6.60;99.90;;;;;;7394093;19;20462;-78
2024/01/07 11:55:38;;;;;;;1.63;1.20;;;6.60;99.90;;;;;;7394244;19;20150;-82
2024/01/07 11:58:04;;;;;;;1.40;1.30;;;6.50;99.90;;;;;;7394514;19;20644;-80
2024/01/07 12:00:33;;;;;;;1.30;0.87;;;6.50;99.90;;;;;;7392546;19;20130;-81
2024/01/07 12:03:03;;;;;;;1.33;1.20;;;6.50;99.90;;;;;;7392116;19;20157;-79
2024/01/07 12:05:30;;;;;;;0.97;0.93;;;6.60;99.90;;;;;;7384829;19;20181;-79
2024/01/07 12:07:56;;;;;;;1.47;1.20;;;6.50;99.90;;;;;;7390595;19;20209;-82
2024/01/07 12:10:24;;;;;;;1.30;0.97;;;6.50;99.90;;;;;;7389004;19;20278;-84
2024/01/07 12:12:53;;;;;;;0.83;0.83;;;6.50;99.90;;;;;;7393229;19;20489;-85
2024/01/07 12:15:22;;;;;;;1.80;1.20;;;6.50;99.90;;;;;;7392476;19;20168;-84
2024/01/07 12:18:00;;;;;;;1.43;1.33;;;6.50;99.90;;;;;;7395699;19;20579;-83
2024/01/07 12:20:27;;;;;;;1.97;1.03;;;6.60;99.90;;;;;;7391560;19;20142;-80
2024/01/07 12:22:56;;;;;;;1.33;1.23;;;6.60;99.90;;;;;;7394403;19;20138;-78
2024/01/07 12:25:26;;;;;;;3.50;1.20;;;6.60;99.90;;;;;;7393751;19;20158;-81
2024/01/07 12:27:54;;;;;;;1.50;0.90;;;6.50;99.90;;;;;;7391915;19;20135;-78
2024/01/07 12:30:21;;;;;;;1.40;1.30;;;6.30;99.90;;;;;;7391700;19;20743;-80
2024/01/07 12:32:47;;;;;;;0.90;0.90;;;6.20;99.90;;;;;;7392103;19;20509;-78
2024/01/07 12:35:13;;;;;;;1.33;1.20;;;6.10;99.90;;;;;;7392482;19;20712;-80
2024/01/07 12:37:39;;;;;;;1.80;1.40;;;6.30;99.90;;;;;;7391983;19;20138;-80
2024/01/07 12:40:08;;;;;;;1.13;0.83;;;6.40;99.90;;;;;;7391152;19;20157;-79
2024/01/07 12:42:34;;;;;;;1.80;1.30;;;6.40;99.90;;;;;;7391731;19;20154;-80
2024/01/07 12:45:01;;;;;;;0.97;0.93;;;6.30;99.90;;;;;;7390843;19;20142;-80
2024/01/07 12:47:27;;;;;;;1.20;1.10;;;6.20;99.90;;;;;;7389865;19;20165;-79
2024/01/07 12:49:52;;;;;;;2.40;1.73;;;6.30;99.90;;;;;;7392092;19;20608;-82
2024/01/07 12:52:18;;;;;;;1.93;1.53;;;6.10;99.90;;;;;;7393450;19;20155;-82
2024/01/07 12:54:44;;;;;;;2.43;1.60;;;6.10;99.90;;;;;;7393306;19;20127;-84